Masontown, Pennsylvania
Current Conditions -  °F | °C
As of 9:53 PM on Tuesday 21 Oct 2014 (Local Time) from KMGW Reporting Station
Overcast Overcast  
Wind Chill: 47°   Ceiling: 1400
Heat Index: 49°   Visibility: 10mi
Dew Point: 43°   Wind: 6mph
Humidity: 80%   Direction: 290°WNW
Pressure: 30.03"   Gusts: NA
Location:  39.85°N, 79.9°W
Report Text: KMGW 220153Z 29005KT 10SM OVC014 09/06 A3003 RMK AO2 SLP170 T00940061
Loading
Personal Weather Stations






























Interactive Weather Map
Tropical Storm Tracking
New forecast layout! Learn more

10-Day Weather Forecast

Advertisements
Track Severe Weather on mobile